createdAt,value
2022-10-13T00:00:13.493Z,9.85
2022-10-13T00:02:40.310Z,11.70
2022-10-13T00:05:09.818Z,11.45
2022-10-13T00:10:04.287Z,12.13
2022-10-13T00:12:34.096Z,13.93
2022-10-13T00:15:00.935Z,9.25
2022-10-13T00:17:27.864Z,11.80
2022-10-13T00:19:54.715Z,11.13
2022-10-13T00:22:21.760Z,12.45
2022-10-13T00:24:53.206Z,11.80
2022-10-13T00:27:20.749Z,10.82
2022-10-13T00:29:47.689Z,11.35
2022-10-13T00:32:14.628Z,11.82
2022-10-13T00:34:41.598Z,9.25
2022-10-13T00:37:08.743Z,11.82
2022-10-13T00:39:37.198Z,10.77
2022-10-13T00:42:04.821Z,9.73
2022-10-13T00:44:56.902Z,12.88
2022-10-13T00:47:25.241Z,13.93
2022-10-13T00:49:54.884Z,13.90
2022-10-13T00:52:23.401Z,12.35
2022-10-13T00:54:51.092Z,13.18
2022-10-13T00:57:20.909Z,10.63
2022-10-13T00:59:48.836Z,12.63
2022-10-13T01:02:16.282Z,13.02
2022-10-13T01:04:47.023Z,12.63
2022-10-13T01:07:17.361Z,13.38
2022-10-13T01:09:45.159Z,10.98
2022-10-13T01:12:21.498Z,12.75
2022-10-13T01:15:07.008Z,11.80
2022-10-13T01:18:02.339Z,12.60
2022-10-13T01:20:29.160Z,11.32
2022-10-13T01:22:55.903Z,10.75
2022-10-13T01:25:46.677Z,10.70
2022-10-13T01:28:40.698Z,10.85
2022-10-13T01:31:20.635Z,13.98
2022-10-13T01:34:17.679Z,9.65
2022-10-13T01:36:50.539Z,11.68
2022-10-13T01:39:20.175Z,11.93
2022-10-13T01:41:52.673Z,10.90
2022-10-13T01:44:41.748Z,13.73
2022-10-13T01:47:10.868Z,10.00
2022-10-13T01:49:39.016Z,14.02
2022-10-13T01:52:10.221Z,11.25
2022-10-13T01:54:37.024Z,12.18
2022-10-13T01:57:04.001Z,15.95
2022-10-13T01:59:36.102Z,12.85
2022-10-13T02:02:23.203Z,13.68
2022-10-13T02:05:37.898Z,11.18
2022-10-13T02:08:19.957Z,14.07
2022-10-13T02:10:56.391Z,11.85
2022-10-13T02:13:25.960Z,15.40
2022-10-13T02:15:56.793Z,13.27
2022-10-13T02:18:31.602Z,12.80
2022-10-13T02:20:59.612Z,10.30
2022-10-13T02:23:27.566Z,11.38
2022-10-13T02:25:56.783Z,11.93
2022-10-13T02:28:24.313Z,10.30
2022-10-13T02:30:51.214Z,12.18
2022-10-13T02:33:19.071Z,10.52
2022-10-13T02:35:45.878Z,11.38
2022-10-13T02:38:12.734Z,13.15
2022-10-13T02:40:39.591Z,12.25
2022-10-13T02:43:06.482Z,12.90
2022-10-13T02:45:33.352Z,10.40
2022-10-13T02:48:00.208Z,8.30
2022-10-13T02:50:27.088Z,12.80
2022-10-13T02:52:53.926Z,9.88
2022-10-13T02:55:21.176Z,14.85
2022-10-13T02:57:47.996Z,12.25
2022-10-13T03:00:16.216Z,15.63
2022-10-13T03:02:43.149Z,12.68
2022-10-13T03:05:11.061Z,11.75
2022-10-13T03:07:38.261Z,13.60
2022-10-13T03:10:06.135Z,13.85
2022-10-13T03:12:33.125Z,17.27
2022-10-13T03:14:59.970Z,17.63
2022-10-13T03:17:29.319Z,11.57
2022-10-13T03:19:56.290Z,13.57
2022-10-13T03:22:23.433Z,18.55
2022-10-13T03:24:50.398Z,12.70
2022-10-13T03:27:17.240Z,14.98
2022-10-13T03:29:44.054Z,14.63
2022-10-13T03:32:10.970Z,12.10
2022-10-13T03:34:37.777Z,10.90
2022-10-13T03:37:04.960Z,15.95
2022-10-13T03:39:31.812Z,17.63
2022-10-13T03:41:58.579Z,12.90
2022-10-13T03:44:25.581Z,21.00
2022-10-13T03:46:52.391Z,13.55
2022-10-13T03:49:19.257Z,12.75
2022-10-13T03:51:46.127Z,12.07
2022-10-13T03:54:13.383Z,19.83
2022-10-13T03:56:41.074Z,17.05
2022-10-13T03:59:08.360Z,12.45
2022-10-13T04:01:35.314Z,11.52
2022-10-13T04:04:02.772Z,18.20
2022-10-13T04:06:29.797Z,15.82
2022-10-13T04:08:57.550Z,12.10
2022-10-13T04:11:24.761Z,13.00
2022-10-13T04:13:52.539Z,13.30
2022-10-13T04:16:25.224Z,11.18
2022-10-13T04:18:57.527Z,11.90
2022-10-13T04:21:25.054Z,11.77
2022-10-13T04:23:54.261Z,12.95
2022-10-13T04:26:23.127Z,13.13
2022-10-13T04:28:52.694Z,21.13
2022-10-13T04:31:22.146Z,14.45
2022-10-13T04:36:16.928Z,12.02
2022-10-13T04:38:44.123Z,11.85
2022-10-13T04:41:14.970Z,11.07
2022-10-13T04:43:42.039Z,13.93
2022-10-13T04:46:18.931Z,14.23
2022-10-13T04:48:46.458Z,21.25
2022-10-13T04:51:24.694Z,20.38
2022-10-13T04:54:01.459Z,13.18
2022-10-13T04:56:28.980Z,20.42
2022-10-13T04:58:55.877Z,16.05
2022-10-13T05:01:25.457Z,14.65
2022-10-13T05:03:54.242Z,20.52
2022-10-13T05:06:24.656Z,15.55
2022-10-13T05:08:51.531Z,13.38
2022-10-13T05:11:19.973Z,21.90
2022-10-13T05:13:48.258Z,21.73
2022-10-13T05:16:17.175Z,15.38
2022-10-13T05:18:44.476Z,17.15
2022-10-13T05:21:19.408Z,12.00
2022-10-13T05:23:46.643Z,14.43
2022-10-13T05:26:15.757Z,14.32
2022-10-13T05:28:44.144Z,15.38
2022-10-13T05:31:17.286Z,10.82
2022-10-13T05:33:45.327Z,12.90
2022-10-13T05:36:15.148Z,11.45
2022-10-13T05:38:42.294Z,19.02
2022-10-13T05:41:13.938Z,12.73
2022-10-13T05:43:41.967Z,19.63
2022-10-13T05:46:08.973Z,12.95
2022-10-13T05:48:37.361Z,17.67
2022-10-13T05:51:12.440Z,15.75
2022-10-13T05:53:49.616Z,15.45
2022-10-13T05:56:25.148Z,18.45
2022-10-13T05:58:55.924Z,12.75
2022-10-13T06:01:26.697Z,14.93
2022-10-13T06:03:58.259Z,19.35
2022-10-13T06:06:30.502Z,17.35
2022-10-13T06:08:58.804Z,17.27
2022-10-13T06:11:25.741Z,18.92
2022-10-13T06:13:52.608Z,22.98
2022-10-13T06:16:19.411Z,14.75
2022-10-13T06:18:46.650Z,19.55
2022-10-13T06:21:13.709Z,13.73
2022-10-13T06:23:40.563Z,18.02
2022-10-13T06:26:08.949Z,19.70
2022-10-13T06:28:36.004Z,18.83
2022-10-13T06:31:06.567Z,15.88
2022-10-13T06:33:34.322Z,19.02
2022-10-13T06:36:03.379Z,28.02
2022-10-13T06:38:30.590Z,13.43
2022-10-13T06:41:05.330Z,17.90
2022-10-13T06:43:38.927Z,20.80
2022-10-13T06:46:07.436Z,15.10
2022-10-13T06:48:34.639Z,19.63
2022-10-13T06:51:12.054Z,20.50
2022-10-13T06:53:39.051Z,17.75
2022-10-13T06:56:07.172Z,27.17
2022-10-13T06:58:35.949Z,23.33
2022-10-13T07:01:03.440Z,21.17
2022-10-13T07:03:30.578Z,17.63
2022-10-13T07:06:05.006Z,19.80
2022-10-13T07:08:33.308Z,21.42
2022-10-13T07:11:05.429Z,23.10
2022-10-13T07:13:34.940Z,22.70
2022-10-13T07:16:05.218Z,21.90
2022-10-13T07:18:32.541Z,24.60
2022-10-13T07:21:00.541Z,21.90
2022-10-13T07:23:31.230Z,20.00
2022-10-13T07:25:58.270Z,19.73
2022-10-13T07:28:26.827Z,22.85
2022-10-13T07:30:53.844Z,20.97
2022-10-13T07:33:20.892Z,14.20
2022-10-13T07:35:47.834Z,23.33
2022-10-13T07:38:14.786Z,21.60
2022-10-13T07:40:41.652Z,21.35
2022-10-13T07:43:08.548Z,14.80
2022-10-13T07:45:35.427Z,18.00
2022-10-13T07:48:02.307Z,22.05
2022-10-13T07:50:29.642Z,16.70
2022-10-13T07:52:56.493Z,23.05
2022-10-13T07:55:23.324Z,23.10
2022-10-13T07:57:50.170Z,19.98
2022-10-13T08:00:17.337Z,21.40
2022-10-13T08:02:44.180Z,22.23
2022-10-13T08:05:11.118Z,19.52
2022-10-13T08:07:39.312Z,21.23
2022-10-13T08:10:06.784Z,23.77
2022-10-13T08:12:36.141Z,20.30
2022-10-13T08:15:06.252Z,15.27
2022-10-13T08:17:33.668Z,21.58
2022-10-13T08:20:00.617Z,24.40
2022-10-13T08:22:28.555Z,22.83
2022-10-13T08:24:57.214Z,17.38
2022-10-13T08:27:32.786Z,23.40
2022-10-13T08:30:13.182Z,19.33
2022-10-13T08:32:41.044Z,25.10
2022-10-13T08:35:08.969Z,20.35
2022-10-13T08:37:35.869Z,22.35
2022-10-13T08:40:02.885Z,18.48
2022-10-13T08:42:29.702Z,25.17
2022-10-13T08:47:52.082Z,22.15
2022-10-13T08:50:25.188Z,19.75
2022-10-13T08:53:10.933Z,19.73
2022-10-13T08:55:44.808Z,15.95
2022-10-13T08:58:21.010Z,25.85
2022-10-13T09:00:47.881Z,17.63
2022-10-13T09:03:53.936Z,24.98
2022-10-13T09:06:31.669Z,24.67
2022-10-13T09:09:07.327Z,20.65
2022-10-13T09:11:40.727Z,23.65
2022-10-13T09:14:10.300Z,17.70
2022-10-13T09:16:43.165Z,19.27
2022-10-13T09:19:18.976Z,23.02
2022-10-13T09:21:46.069Z,19.98
2022-10-13T09:24:16.292Z,24.80
2022-10-13T09:26:44.826Z,21.90
2022-10-13T09:29:20.883Z,22.53
2022-10-13T09:31:48.126Z,23.90
2022-10-13T09:34:21.282Z,18.92
2022-10-13T09:37:21.799Z,24.70
2022-10-13T09:40:14.381Z,22.35
2022-10-13T09:42:41.357Z,21.77
2022-10-13T09:45:18.366Z,28.20
2022-10-13T09:47:55.456Z,14.48
2022-10-13T09:50:30.685Z,19.15
2022-10-13T09:53:32.557Z,20.15
2022-10-13T09:58:55.406Z,17.13
2022-10-13T10:01:26.212Z,17.27
2022-10-13T10:03:54.345Z,26.33
2022-10-13T10:06:24.006Z,21.23
2022-10-13T10:09:12.039Z,15.48
2022-10-13T10:11:42.323Z,20.10
2022-10-13T10:14:29.576Z,24.63
2022-10-13T10:17:03.280Z,21.70
2022-10-13T10:19:57.773Z,19.75
2022-10-13T10:22:49.520Z,23.85
2022-10-13T10:25:59.275Z,24.55
2022-10-13T10:28:35.576Z,23.33
2022-10-13T10:31:27.522Z,22.67
2022-10-13T10:34:01.234Z,21.92
2022-10-13T10:36:46.143Z,23.50
2022-10-13T10:39:43.212Z,18.02
2022-10-13T10:42:52.537Z,22.52
2022-10-13T10:45:28.604Z,15.60
2022-10-13T10:48:02.662Z,22.48
2022-10-13T10:50:31.245Z,16.67
2022-10-13T10:53:23.152Z,25.07
2022-10-13T10:56:03.037Z,20.10
2022-10-13T10:59:15.143Z,23.88
2022-10-13T11:01:56.766Z,23.65
2022-10-13T11:04:43.752Z,21.23
2022-10-13T11:07:22.776Z,21.45
2022-10-13T11:09:50.453Z,21.85
2022-10-13T11:12:20.784Z,26.45
2022-10-13T11:14:54.933Z,22.20
2022-10-13T11:17:38.886Z,19.77
2022-10-13T11:20:20.968Z,23.95
2022-10-13T11:22:59.974Z,19.67
2022-10-13T11:25:44.562Z,23.30
2022-10-13T11:28:23.674Z,21.80
2022-10-13T11:31:17.822Z,20.05
2022-10-13T11:33:46.660Z,23.23
2022-10-13T11:36:44.282Z,23.35
2022-10-13T11:39:23.247Z,19.02
2022-10-13T11:42:02.321Z,25.48
2022-10-13T11:44:55.894Z,23.77
2022-10-13T11:48:02.069Z,21.63
2022-10-13T11:50:59.964Z,25.38
2022-10-13T11:53:33.085Z,24.27
2022-10-13T11:56:01.542Z,32.10
2022-10-13T11:58:30.612Z,28.80
2022-10-13T12:01:00.207Z,27.85
2022-10-13T12:03:42.030Z,28.50
2022-10-13T12:06:33.779Z,27.75
2022-10-13T12:09:19.137Z,26.42
2022-10-13T12:11:46.697Z,28.38
2022-10-13T12:14:24.180Z,30.15
2022-10-13T12:16:59.940Z,31.85
2022-10-13T12:19:30.427Z,28.50
2022-10-13T12:22:00.197Z,28.80
2022-10-13T12:24:30.121Z,32.53
2022-10-13T12:26:58.289Z,34.25
2022-10-13T12:29:29.434Z,28.73
2022-10-13T12:31:58.573Z,33.53
2022-10-13T12:34:27.611Z,33.83
2022-10-13T12:37:03.891Z,27.65
2022-10-13T12:39:32.412Z,30.65
2022-10-13T12:42:02.301Z,28.13
2022-10-13T12:44:31.516Z,28.83
2022-10-13T12:47:03.883Z,28.58
2022-10-13T12:49:35.988Z,23.13
2022-10-13T12:52:19.820Z,24.08
2022-10-13T12:54:52.096Z,29.55
2022-10-13T12:57:20.758Z,29.25
2022-10-13T12:59:48.139Z,33.92
2022-10-13T13:02:41.415Z,34.53
2022-10-13T13:05:32.711Z,30.00
2022-10-13T13:08:00.989Z,25.60
2022-10-13T13:10:28.069Z,35.13
2022-10-13T13:12:55.410Z,36.35
2022-10-13T13:15:25.267Z,32.55
2022-10-13T13:17:58.398Z,32.35
2022-10-13T13:20:32.473Z,39.45
2022-10-13T13:22:59.880Z,30.88
2022-10-13T13:25:27.067Z,29.08
2022-10-13T13:27:54.042Z,27.63
2022-10-13T13:30:23.705Z,30.95
2022-10-13T13:32:50.931Z,24.27
2022-10-13T13:35:18.073Z,28.83
2022-10-13T13:37:53.043Z,26.95
2022-10-13T13:40:25.651Z,27.52
2022-10-13T13:42:52.654Z,23.25
2022-10-13T13:45:22.249Z,29.73
2022-10-13T13:47:49.450Z,26.50
2022-10-13T13:50:21.330Z,27.27
2022-10-13T13:52:48.417Z,24.60
2022-10-13T13:55:15.401Z,26.27
2022-10-13T13:57:43.392Z,27.55
2022-10-13T14:00:12.516Z,20.88
2022-10-13T14:02:39.915Z,24.63
2022-10-13T14:05:07.670Z,26.50
2022-10-13T14:07:34.805Z,24.15
2022-10-13T14:10:02.334Z,22.73
2022-10-13T14:12:31.028Z,24.02
2022-10-13T14:14:58.604Z,22.38
2022-10-13T14:17:26.412Z,22.52
2022-10-13T14:19:53.299Z,22.95
2022-10-13T14:22:20.800Z,25.27
2022-10-13T14:24:48.185Z,24.00
2022-10-13T14:27:15.336Z,25.92
2022-10-13T14:29:42.268Z,19.15
2022-10-13T14:32:09.159Z,22.58
2022-10-13T14:34:36.020Z,17.75
2022-10-13T14:37:02.920Z,26.70
2022-10-13T14:39:29.809Z,24.20
2022-10-13T14:41:59.160Z,22.20
2022-10-13T14:46:52.737Z,20.38
2022-10-13T14:49:19.607Z,21.73
2022-10-13T14:51:46.548Z,24.55
2022-10-13T14:54:13.458Z,23.80
2022-10-13T14:56:40.319Z,24.33
2022-10-13T14:59:07.567Z,25.50
2022-10-13T15:01:34.483Z,24.13
2022-10-13T15:04:02.639Z,24.45
2022-10-13T15:06:29.791Z,24.88
2022-10-13T15:08:59.903Z,20.60
2022-10-13T15:11:27.457Z,20.30
2022-10-13T15:13:54.432Z,20.33
2022-10-13T15:16:23.474Z,19.85
2022-10-13T15:18:50.319Z,20.70
2022-10-13T15:21:18.049Z,21.95
2022-10-13T15:23:45.524Z,23.27
2022-10-13T15:26:14.889Z,23.10
2022-10-13T15:31:11.280Z,21.70
2022-10-13T15:33:38.575Z,23.73
2022-10-13T15:36:05.618Z,23.15
2022-10-13T15:38:32.387Z,17.42
2022-10-13T15:41:03.981Z,25.13
2022-10-13T15:43:31.192Z,23.85
2022-10-13T15:46:03.704Z,21.95
2022-10-13T15:48:30.808Z,24.83
2022-10-13T15:50:57.984Z,24.77
2022-10-13T15:53:24.957Z,27.02
2022-10-13T15:55:52.064Z,23.75
2022-10-13T15:58:18.974Z,25.23
2022-10-13T16:00:45.876Z,21.38
2022-10-13T16:03:18.049Z,22.52
2022-10-13T16:05:46.445Z,23.98
2022-10-13T16:08:14.605Z,22.80
2022-10-13T16:10:43.295Z,25.15
2022-10-13T16:13:15.045Z,21.38
2022-10-13T16:15:42.854Z,21.35
2022-10-13T16:18:09.724Z,19.95
2022-10-13T16:20:38.878Z,19.90
2022-10-13T16:23:05.805Z,22.15
2022-10-13T16:25:32.641Z,21.85
2022-10-13T16:28:01.012Z,20.63
2022-10-13T16:30:30.464Z,20.93
2022-10-13T16:35:24.420Z,24.00
2022-10-13T16:37:52.302Z,18.83
2022-10-13T16:40:19.250Z,22.75
2022-10-13T16:42:46.261Z,14.40
2022-10-13T16:45:13.270Z,21.05
2022-10-13T16:47:40.071Z,22.05
2022-10-13T16:50:09.728Z,20.58
2022-10-13T16:52:37.777Z,22.40
2022-10-13T16:55:06.195Z,16.52
2022-10-13T16:57:33.246Z,25.95
2022-10-13T17:00:00.280Z,29.23
2022-10-13T17:02:29.346Z,23.95
2022-10-13T17:04:56.182Z,21.60
2022-10-13T17:07:23.305Z,22.45
2022-10-13T17:09:50.492Z,24.10
2022-10-13T17:12:17.604Z,23.95
2022-10-13T17:14:44.461Z,18.13
2022-10-13T17:17:11.416Z,25.27
2022-10-13T17:19:38.221Z,17.85
2022-10-13T17:22:05.102Z,25.90
2022-10-13T17:24:31.950Z,25.55
2022-10-13T17:26:58.828Z,28.40
2022-10-13T17:29:25.691Z,28.95
2022-10-13T17:31:52.507Z,24.15
2022-10-13T17:34:19.356Z,17.77
2022-10-13T17:36:46.330Z,31.90
2022-10-13T17:39:13.908Z,31.42
2022-10-13T17:41:41.408Z,31.15
2022-10-13T17:44:08.440Z,28.70
2022-10-13T17:46:37.912Z,33.85
2022-10-13T17:49:07.613Z,27.90
2022-10-13T17:51:34.979Z,26.77
2022-10-13T17:54:02.040Z,23.35
2022-10-13T17:56:30.017Z,32.05
2022-10-13T17:58:57.008Z,19.00
2022-10-13T18:01:27.294Z,30.17
2022-10-13T18:03:59.838Z,35.35
2022-10-13T18:06:32.607Z,14.82
2022-10-13T18:09:06.833Z,14.05
2022-10-13T18:11:34.013Z,18.38
2022-10-13T18:14:02.155Z,20.98
2022-10-13T18:16:29.321Z,14.75
2022-10-13T18:18:56.486Z,16.15
2022-10-13T18:21:26.859Z,24.23
2022-10-13T18:23:59.740Z,20.35
2022-10-13T18:26:28.791Z,21.65
2022-10-13T18:28:56.877Z,13.57
2022-10-13T18:31:27.732Z,32.65
2022-10-13T18:33:56.724Z,34.13
2022-10-13T18:36:29.701Z,29.10
2022-10-13T18:39:02.138Z,33.92
2022-10-13T18:41:29.597Z,32.50
2022-10-13T18:43:56.573Z,33.03
2022-10-13T18:46:24.013Z,37.58
2022-10-13T18:48:51.182Z,35.95
2022-10-13T18:51:19.487Z,33.15
2022-10-13T18:53:48.660Z,13.82
2022-10-13T18:56:26.792Z,25.90
2022-10-13T18:58:59.570Z,16.85
2022-10-13T19:01:29.624Z,31.85
2022-10-13T19:03:57.409Z,32.47
2022-10-13T19:06:26.936Z,33.05
2022-10-13T19:09:03.896Z,35.72
2022-10-13T19:11:31.796Z,29.48
2022-10-13T19:13:59.930Z,37.47
2022-10-13T19:16:29.914Z,21.95
2022-10-13T19:18:57.277Z,37.22
2022-10-13T19:21:24.584Z,41.42
2022-10-13T19:23:51.851Z,40.15
2022-10-13T19:26:23.835Z,47.00
2022-10-13T19:28:58.454Z,43.65
2022-10-13T19:31:27.236Z,34.47
2022-10-13T19:33:54.949Z,44.85
2022-10-13T19:36:41.179Z,41.67
2022-10-13T19:39:12.830Z,46.25
2022-10-13T19:41:39.699Z,28.15
2022-10-13T19:44:07.094Z,29.75
2022-10-13T19:46:35.537Z,44.22
2022-10-13T19:49:03.659Z,41.85
2022-10-13T19:51:30.716Z,28.05
2022-10-13T19:53:57.763Z,17.33
2022-10-13T19:56:28.593Z,43.97
2022-10-13T19:58:55.471Z,47.90
2022-10-13T20:01:23.257Z,24.95
2022-10-13T20:03:50.554Z,34.38
2022-10-13T20:06:17.864Z,35.15
2022-10-13T20:08:47.457Z,33.67
2022-10-13T20:11:23.099Z,32.72
2022-10-13T20:13:51.520Z,45.85
2022-10-13T20:16:21.587Z,37.58
2022-10-13T20:18:53.955Z,33.53
2022-10-13T20:21:21.005Z,49.28
2022-10-13T20:23:48.333Z,33.10
2022-10-13T20:26:15.286Z,48.85
2022-10-13T20:28:44.036Z,53.88
2022-10-13T20:31:13.063Z,52.95
2022-10-13T20:33:40.721Z,51.13
2022-10-13T20:36:11.207Z,36.42
2022-10-13T20:38:38.202Z,18.17
2022-10-13T20:41:26.497Z,51.85
2022-10-13T20:43:55.406Z,33.50
2022-10-13T20:46:23.968Z,44.28
2022-10-13T20:49:10.015Z,25.03
2022-10-13T20:51:38.200Z,28.58
2022-10-13T20:54:05.092Z,46.55
2022-10-13T20:56:31.981Z,39.63
2022-10-13T20:59:05.458Z,31.52
2022-10-13T21:01:33.342Z,39.92
2022-10-13T21:04:00.225Z,29.35
2022-10-13T21:06:27.595Z,31.55
2022-10-13T21:08:54.448Z,26.20
2022-10-13T21:11:23.038Z,49.38
2022-10-13T21:13:51.236Z,46.53
2022-10-13T21:16:29.435Z,37.55
2022-10-13T21:18:57.670Z,25.45
2022-10-13T21:21:26.955Z,40.42
2022-10-13T21:23:56.377Z,43.70
2022-10-13T21:28:50.955Z,38.78
2022-10-13T21:31:19.637Z,47.75
2022-10-13T21:33:46.483Z,50.72
2022-10-13T21:36:19.398Z,32.42
2022-10-13T21:38:47.352Z,28.77
2022-10-13T21:41:15.168Z,52.65
2022-10-13T21:43:42.005Z,55.75
2022-10-13T21:46:11.745Z,60.50
2022-10-13T21:51:24.204Z,44.65
2022-10-13T21:53:53.943Z,55.88
2022-10-13T21:56:21.760Z,55.20
2022-10-13T21:58:49.175Z,45.13
2022-10-13T22:01:17.767Z,45.10
2022-10-13T22:03:46.993Z,59.00
2022-10-13T22:06:19.216Z,59.08
2022-10-13T22:08:49.025Z,67.30
2022-10-13T22:13:43.420Z,43.92
2022-10-13T22:16:13.559Z,59.78
2022-10-13T22:18:40.999Z,30.50
2022-10-13T22:21:12.246Z,47.33
2022-10-13T22:23:39.231Z,63.92
2022-10-13T22:26:07.165Z,70.38
2022-10-13T22:28:37.245Z,61.63
2022-10-13T22:31:06.436Z,52.08
2022-10-13T22:33:35.723Z,57.25
2022-10-13T22:36:19.631Z,55.70
2022-10-13T22:38:48.676Z,71.72
2022-10-13T22:41:17.154Z,67.68
2022-10-13T22:43:45.052Z,66.43
2022-10-13T22:46:13.447Z,53.95
2022-10-13T22:48:41.763Z,72.93
2022-10-13T22:51:09.467Z,69.75
2022-10-13T22:53:36.696Z,69.65
2022-10-13T22:56:15.449Z,74.38
2022-10-13T22:58:42.284Z,74.85
2022-10-13T23:01:14.985Z,50.30
2022-10-13T23:03:42.417Z,30.05
2022-10-13T23:06:14.162Z,75.38
2022-10-13T23:08:41.262Z,57.72
2022-10-13T23:11:08.315Z,71.05
2022-10-13T23:13:35.255Z,69.15
2022-10-13T23:16:14.967Z,78.93
2022-10-13T23:18:42.444Z,95.03
2022-10-13T23:21:12.488Z,79.82
2022-10-13T23:23:39.570Z,86.70
2022-10-13T23:26:12.751Z,89.65
2022-10-13T23:28:40.333Z,104.35
2022-10-13T23:31:16.317Z,93.93
2022-10-13T23:33:44.227Z,68.30
2022-10-13T23:36:16.009Z,96.07
2022-10-13T23:38:42.900Z,91.70
2022-10-13T23:41:12.079Z,56.92
2022-10-13T23:43:39.410Z,49.88
2022-10-13T23:46:06.458Z,40.45
2022-10-13T23:48:33.364Z,70.90
2022-10-13T23:51:06.817Z,32.58
2022-10-13T23:53:35.741Z,49.15
2022-10-13T23:56:04.465Z,64.97
2022-10-13T23:58:32.259Z,27.17
